sensor_id;sensor_type;location;lat;lon;timestamp;pressure;altitude;pressure_sealevel;temperature;humidity
19526;BME280;9907;42.676;26.348;2023-05-19T00:00:52;98564.38;;;16.31;76.32
19526;BME280;9907;42.676;26.348;2023-05-19T00:03:18;98572.81;;;16.28;77.44
19526;BME280;9907;42.676;26.348;2023-05-19T00:05:47;98559.06;;;16.23;77.93
19526;BME280;9907;42.676;26.348;2023-05-19T00:08:15;98541.25;;;16.22;77.01
19526;BME280;9907;42.676;26.348;2023-05-19T00:10:41;98544.03;;;16.28;76.74
19526;BME280;9907;42.676;26.348;2023-05-19T00:13:07;98544.66;;;16.30;76.08
19526;BME280;9907;42.676;26.348;2023-05-19T00:15:33;98558.81;;;16.32;76.23
19526;BME280;9907;42.676;26.348;2023-05-19T00:17:59;98568.53;;;16.33;75.84
19526;BME280;9907;42.676;26.348;2023-05-19T00:20:25;98568.53;;;16.33;76.27
19526;BME280;9907;42.676;26.348;2023-05-19T00:22:50;98561.13;;;16.35;75.79
19526;BME280;9907;42.676;26.348;2023-05-19T00:25:16;98577.47;;;16.34;76.65
19526;BME280;9907;42.676;26.348;2023-05-19T00:27:41;98572.75;;;16.36;76.48
19526;BME280;9907;42.676;26.348;2023-05-19T00:30:07;98593.47;;;16.35;76.20
19526;BME280;9907;42.676;26.348;2023-05-19T00:32:33;98584.06;;;16.31;76.44
19526;BME280;9907;42.676;26.348;2023-05-19T00:34:58;98594.00;;;16.31;76.71
19526;BME280;9907;42.676;26.348;2023-05-19T00:37:24;98598.94;;;16.27;77.06
19526;BME280;9907;42.676;26.348;2023-05-19T00:39:49;98625.50;;;16.30;77.45
19526;BME280;9907;42.676;26.348;2023-05-19T00:42:15;98615.09;;;16.27;78.43
19526;BME280;9907;42.676;26.348;2023-05-19T00:44:40;98616.31;;;16.25;78.75
19526;BME280;9907;42.676;26.348;2023-05-19T00:47:07;98617.16;;;16.25;78.61
19526;BME280;9907;42.676;26.348;2023-05-19T00:49:34;98644.09;;;16.25;78.35
19526;BME280;9907;42.676;26.348;2023-05-19T00:52:00;98640.38;;;16.26;78.41
19526;BME280;9907;42.676;26.348;2023-05-19T00:54:27;98616.31;;;16.25;78.44
19526;BME280;9907;42.676;26.348;2023-05-19T00:56:54;98633.41;;;16.17;79.44
19526;BME280;9907;42.676;26.348;2023-05-19T00:59:20;98656.97;;;16.15;79.81
19526;BME280;9907;42.676;26.348;2023-05-19T01:01:46;98656.16;;;16.15;79.93
19526;BME280;9907;42.676;26.348;2023-05-19T01:04:17;98647.34;;;16.21;78.53
19526;BME280;9907;42.676;26.348;2023-05-19T01:06:48;98656.97;;;16.15;80.04
19526;BME280;9907;42.676;26.348;2023-05-19T01:09:20;98674.41;;;16.04;81.43
19526;BME280;9907;42.676;26.348;2023-05-19T01:11:47;98664.00;;;16.01;82.31
19526;BME280;9907;42.676;26.348;2023-05-19T01:14:12;98656.81;;;15.94;83.07
19526;BME280;9907;42.676;26.348;2023-05-19T01:16:46;98670.50;;;15.92;83.98
19526;BME280;9907;42.676;26.348;2023-05-19T01:19:35;98667.84;;;15.84;85.60
19526;BME280;9907;42.676;26.348;2023-05-19T01:22:18;98679.47;;;15.85;85.48
19526;BME280;9907;42.676;26.348;2023-05-19T01:33:03;98687.97;;;15.74;86.19
19526;BME280;9907;42.676;26.348;2023-05-19T01:35:31;98699.91;;;15.71;86.24
19526;BME280;9907;42.676;26.348;2023-05-19T01:37:59;98691.53;;;15.66;86.71
19526;BME280;9907;42.676;26.348;2023-05-19T01:40:27;98699.78;;;15.65;87.20
19526;BME280;9907;42.676;26.348;2023-05-19T01:42:56;98706.84;;;15.66;87.04
19526;BME280;9907;42.676;26.348;2023-05-19T01:45:22;98702.78;;;15.70;86.57
19526;BME280;9907;42.676;26.348;2023-05-19T01:47:51;98691.88;;;15.63;87.23
19526;BME280;9907;42.676;26.348;2023-05-19T01:50:17;98688.53;;;15.61;87.36
19526;BME280;9907;42.676;26.348;2023-05-19T01:52:43;98692.22;;;15.60;87.87
19526;BME280;9907;42.676;26.348;2023-05-19T01:55:08;98688.78;;;15.51;88.82
19526;BME280;9907;42.676;26.348;2023-05-19T02:00:12;98694.16;;;15.51;88.94
19526;BME280;9907;42.676;26.348;2023-05-19T02:03:00;98678.00;;;15.43;89.37
19526;BME280;9907;42.676;26.348;2023-05-19T02:05:45;98693.00;;;15.38;89.12
19526;BME280;9907;42.676;26.348;2023-05-19T02:10:54;98688.34;;;15.32;89.79
19526;BME280;9907;42.676;26.348;2023-05-19T02:13:23;98691.19;;;15.30;90.00
19526;BME280;9907;42.676;26.348;2023-05-19T02:15:54;98697.41;;;15.31;89.65
19526;BME280;9907;42.676;26.348;2023-05-19T02:18:23;98695.44;;;15.25;89.37
19526;BME280;9907;42.676;26.348;2023-05-19T02:20:49;98706.84;;;15.27;89.11
19526;BME280;9907;42.676;26.348;2023-05-19T02:23:14;98714.25;;;15.25;88.50
19526;BME280;9907;42.676;26.348;2023-05-19T02:25:40;98708.03;;;15.24;88.62
19526;BME280;9907;42.676;26.348;2023-05-19T02:28:06;98704.69;;;15.22;88.94
19526;BME280;9907;42.676;26.348;2023-05-19T02:30:31;98699.31;;;15.22;89.77
19526;BME280;9907;42.676;26.348;2023-05-19T02:32:57;98700.31;;;15.21;90.43
19526;BME280;9907;42.676;26.348;2023-05-19T02:35:22;98704.69;;;15.22;90.74
19526;BME280;9907;42.676;26.348;2023-05-19T02:37:47;98701.00;;;15.15;90.95
19526;BME280;9907;42.676;26.348;2023-05-19T02:40:13;98713.44;;;15.16;90.54
19526;BME280;9907;42.676;26.348;2023-05-19T02:42:38;98721.53;;;15.16;90.08
19526;BME280;9907;42.676;26.348;2023-05-19T02:45:04;98720.69;;;15.16;89.57
19526;BME280;9907;42.676;26.348;2023-05-19T02:47:30;98724.91;;;15.18;88.15
19526;BME280;9907;42.676;26.348;2023-05-19T02:49:55;98734.47;;;15.13;89.98
19526;BME280;9907;42.676;26.348;2023-05-19T02:52:21;98724.91;;;15.18;88.80
19526;BME280;9907;42.676;26.348;2023-05-19T02:54:46;98740.06;;;15.11;89.85
19526;BME280;9907;42.676;26.348;2023-05-19T02:57:11;98750.13;;;15.09;89.90
19526;BME280;9907;42.676;26.348;2023-05-19T02:59:37;98750.16;;;15.01;90.46
19526;BME280;9907;42.676;26.348;2023-05-19T03:02:02;98738.53;;;15.00;91.35
19526;BME280;9907;42.676;26.348;2023-05-19T03:04:28;98743.44;;;14.97;90.79
19526;BME280;9907;42.676;26.348;2023-05-19T03:06:55;98739.94;;;14.96;91.44
19526;BME280;9907;42.676;26.348;2023-05-19T03:09:21;98745.13;;;14.98;91.04
19526;BME280;9907;42.676;26.348;2023-05-19T03:11:47;98764.63;;;15.00;90.59
19526;BME280;9907;42.676;26.348;2023-05-19T03:14:12;98757.22;;;15.02;90.70
19526;BME280;9907;42.676;26.348;2023-05-19T03:16:39;98760.06;;;15.00;90.73
19526;BME280;9907;42.676;26.348;2023-05-19T03:19:06;98768.97;;;15.09;89.76
19526;BME280;9907;42.676;26.348;2023-05-19T03:21:31;98767.28;;;15.08;90.38
19526;BME280;9907;42.676;26.348;2023-05-19T03:24:00;98778.88;;;15.08;88.81
19526;BME280;9907;42.676;26.348;2023-05-19T03:26:26;98763.91;;;15.14;87.56
19526;BME280;9907;42.676;26.348;2023-05-19T03:28:53;98763.22;;;15.12;86.60
19526;BME280;9907;42.676;26.348;2023-05-19T03:31:18;98760.88;;;15.17;86.42
19526;BME280;9907;42.676;26.348;2023-05-19T03:33:44;98757.50;;;15.15;88.69
19526;BME280;9907;42.676;26.348;2023-05-19T03:36:09;98761.03;;;15.16;87.75
19526;BME280;9907;42.676;26.348;2023-05-19T03:38:36;98763.03;;;15.22;87.29
19526;BME280;9907;42.676;26.348;2023-05-19T03:41:02;98758.03;;;15.19;89.11
19526;BME280;9907;42.676;26.348;2023-05-19T03:43:27;98762.84;;;15.23;88.14
19526;BME280;9907;42.676;26.348;2023-05-19T03:45:53;98775.31;;;15.24;87.82
19526;BME280;9907;42.676;26.348;2023-05-19T03:48:18;98775.63;;;15.29;87.03
19526;BME280;9907;42.676;26.348;2023-05-19T03:50:44;98774.09;;;15.35;86.79
19526;BME280;9907;42.676;26.348;2023-05-19T03:53:09;98768.19;;;15.39;87.11
19526;BME280;9907;42.676;26.348;2023-05-19T03:55:35;98770.88;;;15.39;88.60
19526;BME280;9907;42.676;26.348;2023-05-19T03:58:02;98781.13;;;15.44;86.54
19526;BME280;9907;42.676;26.348;2023-05-19T04:00:27;98767.31;;;15.47;87.15
19526;BME280;9907;42.676;26.348;2023-05-19T04:02:52;98767.84;;;15.50;87.73
19526;BME280;9907;42.676;26.348;2023-05-19T04:05:18;98768.16;;;15.55;83.54
19526;BME280;9907;42.676;26.348;2023-05-19T04:07:43;98774.19;;;15.57;86.48
19526;BME280;9907;42.676;26.348;2023-05-19T04:10:11;98783.28;;;15.56;82.18
19526;BME280;9907;42.676;26.348;2023-05-19T04:12:37;98777.22;;;15.63;83.70
19526;BME280;9907;42.676;26.348;2023-05-19T04:15:02;98776.19;;;15.64;85.43
19526;BME280;9907;42.676;26.348;2023-05-19T04:17:30;98757.66;;;15.69;84.55
19526;BME280;9907;42.676;26.348;2023-05-19T04:19:55;98756.81;;;15.68;85.46
19526;BME280;9907;42.676;26.348;2023-05-19T04:22:21;98769.56;;;15.74;82.92
19526;BME280;9907;42.676;26.348;2023-05-19T04:24:46;98761.28;;;15.84;81.68
19526;BME280;9907;42.676;26.348;2023-05-19T04:27:13;98753.50;;;15.89;81.57
19526;BME280;9907;42.676;26.348;2023-05-19T04:29:40;98760.03;;;15.94;82.63
19526;BME280;9907;42.676;26.348;2023-05-19T04:32:06;98758.53;;;15.92;84.06
19526;BME280;9907;42.676;26.348;2023-05-19T04:34:36;98752.25;;;15.99;80.67
19526;BME280;9907;42.676;26.348;2023-05-19T04:37:06;98757.88;;;16.13;79.54
19526;BME280;9907;42.676;26.348;2023-05-19T04:39:31;98752.25;;;16.22;79.15
19526;BME280;9907;42.676;26.348;2023-05-19T04:41:57;98754.44;;;16.41;82.06
19526;BME280;9907;42.676;26.348;2023-05-19T04:44:22;98754.03;;;16.52;77.56
19526;BME280;9907;42.676;26.348;2023-05-19T04:46:48;98763.03;;;16.68;75.55
19526;BME280;9907;42.676;26.348;2023-05-19T04:49:14;98762.78;;;16.77;74.60
19526;BME280;9907;42.676;26.348;2023-05-19T04:51:39;98764.81;;;16.90;76.19
19526;BME280;9907;42.676;26.348;2023-05-19T04:54:10;98762.69;;;17.15;75.52
19526;BME280;9907;42.676;26.348;2023-05-19T04:56:35;98769.78;;;17.30;72.79
19526;BME280;9907;42.676;26.348;2023-05-19T04:59:01;98761.13;;;17.35;72.75
19526;BME280;9907;42.676;26.348;2023-05-19T05:01:27;98754.31;;;17.53;74.19
19526;BME280;9907;42.676;26.348;2023-05-19T05:03:53;98770.06;;;17.65;70.69
19526;BME280;9907;42.676;26.348;2023-05-19T05:06:22;98766.97;;;17.82;69.28
19526;BME280;9907;42.676;26.348;2023-05-19T05:08:48;98760.88;;;17.95;70.68
19526;BME280;9907;42.676;26.348;2023-05-19T05:11:14;98751.59;;;18.04;67.22
19526;BME280;9907;42.676;26.348;2023-05-19T05:13:39;98769.00;;;18.16;67.03
19526;BME280;9907;42.676;26.348;2023-05-19T05:16:07;98772.63;;;18.23;65.66
19526;BME280;9907;42.676;26.348;2023-05-19T05:18:36;98751.19;;;18.43;65.19
19526;BME280;9907;42.676;26.348;2023-05-19T05:21:03;98775.72;;;18.63;65.45
19526;BME280;9907;42.676;26.348;2023-05-19T05:23:29;98772.66;;;18.66;64.12
19526;BME280;9907;42.676;26.348;2023-05-19T05:25:55;98774.38;;;18.73;63.54
19526;BME280;9907;42.676;26.348;2023-05-19T05:28:20;98779.03;;;18.86;63.28
19526;BME280;9907;42.676;26.348;2023-05-19T05:30:46;98765.66;;;19.06;63.77
19526;BME280;9907;42.676;26.348;2023-05-19T05:33:11;98768.84;;;19.16;60.88
19526;BME280;9907;42.676;26.348;2023-05-19T05:35:37;98789.38;;;19.31;60.28
19526;BME280;9907;42.676;26.348;2023-05-19T05:38:02;98777.44;;;19.26;59.83
19526;BME280;9907;42.676;26.348;2023-05-19T05:40:28;98789.81;;;19.35;60.03
19526;BME280;9907;42.676;26.348;2023-05-19T05:42:54;98799.34;;;19.31;60.36
19526;BME280;9907;42.676;26.348;2023-05-19T05:45:21;98786.84;;;19.58;59.21
19526;BME280;9907;42.676;26.348;2023-05-19T05:47:47;98800.72;;;19.48;58.93
19526;BME280;9907;42.676;26.348;2023-05-19T05:50:13;98802.44;;;19.56;59.49
19526;BME280;9907;42.676;26.348;2023-05-19T05:52:40;98808.16;;;19.74;59.15
19526;BME280;9907;42.676;26.348;2023-05-19T05:55:06;98813.50;;;19.95;59.93
19526;BME280;9907;42.676;26.348;2023-05-19T05:57:32;98812.50;;;20.09;58.26
19526;BME280;9907;42.676;26.348;2023-05-19T06:00:00;98812.91;;;20.13;57.93
19526;BME280;9907;42.676;26.348;2023-05-19T06:02:26;98827.75;;;20.23;57.22
19526;BME280;9907;42.676;26.348;2023-05-19T06:04:52;98824.50;;;20.34;57.05
19526;BME280;9907;42.676;26.348;2023-05-19T06:07:18;98840.16;;;20.39;56.50
19526;BME280;9907;42.676;26.348;2023-05-19T06:09:44;98829.72;;;20.43;56.09
19526;BME280;9907;42.676;26.348;2023-05-19T06:12:09;98827.63;;;20.45;55.71
19526;BME280;9907;42.676;26.348;2023-05-19T06:14:35;98840.41;;;20.64;56.07
19526;BME280;9907;42.676;26.348;2023-05-19T06:17:01;98831.84;;;20.67;56.41
19526;BME280;9907;42.676;26.348;2023-05-19T06:19:26;98842.31;;;21.03;56.04
19526;BME280;9907;42.676;26.348;2023-05-19T06:21:52;98843.81;;;20.99;54.86
19526;BME280;9907;42.676;26.348;2023-05-19T06:24:17;98850.47;;;21.09;54.73
19526;BME280;9907;42.676;26.348;2023-05-19T06:26:43;98848.41;;;21.18;55.16
19526;BME280;9907;42.676;26.348;2023-05-19T06:29:08;98858.22;;;21.12;55.22
19526;BME280;9907;42.676;26.348;2023-05-19T06:31:33;98840.66;;;21.21;54.43
19526;BME280;9907;42.676;26.348;2023-05-19T06:33:59;98846.94;;;21.09;55.28
19526;BME280;9907;42.676;26.348;2023-05-19T06:36:24;98850.06;;;21.25;55.67
19526;BME280;9907;42.676;26.348;2023-05-19T06:38:50;98858.84;;;21.54;54.72
19526;BME280;9907;42.676;26.348;2023-05-19T06:41:15;98862.19;;;21.49;53.80
19526;BME280;9907;42.676;26.348;2023-05-19T06:43:41;98862.81;;;21.58;53.90
19526;BME280;9907;42.676;26.348;2023-05-19T06:46:07;98847.72;;;21.62;53.88
19526;BME280;9907;42.676;26.348;2023-05-19T06:48:32;98846.19;;;21.85;53.97
19526;BME280;9907;42.676;26.348;2023-05-19T06:50:58;98855.38;;;22.04;53.16
19526;BME280;9907;42.676;26.348;2023-05-19T06:53:23;98855.94;;;22.19;52.20
19526;BME280;9907;42.676;26.348;2023-05-19T06:55:49;98859.34;;;22.08;52.10
19526;BME280;9907;42.676;26.348;2023-05-19T06:58:14;98852.28;;;22.39;52.82
19526;BME280;9907;42.676;26.348;2023-05-19T07:00:40;98855.97;;;22.13;51.06
19526;BME280;9907;42.676;26.348;2023-05-19T07:03:06;98872.03;;;22.27;51.44
19526;BME280;9907;42.676;26.348;2023-05-19T07:05:31;98868.53;;;22.52;51.44
19526;BME280;9907;42.676;26.348;2023-05-19T07:07:57;98875.09;;;22.82;51.25
19526;BME280;9907;42.676;26.348;2023-05-19T07:10:23;98871.53;;;23.13;50.34
19526;BME280;9907;42.676;26.348;2023-05-19T07:12:48;98858.91;;;23.18;49.43
19526;BME280;9907;42.676;26.348;2023-05-19T07:15:14;98868.47;;;23.52;49.89
19526;BME280;9907;42.676;26.348;2023-05-19T07:17:39;98862.75;;;23.60;48.89
19526;BME280;9907;42.676;26.348;2023-05-19T07:20:05;98865.94;;;23.75;48.33
19526;BME280;9907;42.676;26.348;2023-05-19T07:22:31;98874.34;;;23.74;47.74
19526;BME280;9907;42.676;26.348;2023-05-19T07:24:59;98874.97;;;23.76;47.87
19526;BME280;9907;42.676;26.348;2023-05-19T07:27:25;98869.19;;;23.84;48.11
19526;BME280;9907;42.676;26.348;2023-05-19T07:29:50;98867.09;;;24.04;49.39
19526;BME280;9907;42.676;26.348;2023-05-19T07:32:16;98870.72;;;24.35;49.21
19526;BME280;9907;42.676;26.348;2023-05-19T07:34:41;98869.44;;;24.37;46.17
19526;BME280;9907;42.676;26.348;2023-05-19T07:37:07;98891.34;;;24.49;46.78
19526;BME280;9907;42.676;26.348;2023-05-19T07:39:34;98880.13;;;24.20;44.99
19526;BME280;9907;42.676;26.348;2023-05-19T07:42:00;98888.78;;;24.17;45.61
19526;BME280;9907;42.676;26.348;2023-05-19T07:44:25;98886.41;;;24.21;44.95
19526;BME280;9907;42.676;26.348;2023-05-19T07:46:52;98892.72;;;24.21;45.19
19526;BME280;9907;42.676;26.348;2023-05-19T07:49:17;98882.22;;;24.55;45.23
19526;BME280;9907;42.676;26.348;2023-05-19T07:51:43;98871.44;;;24.60;45.91
19526;BME280;9907;42.676;26.348;2023-05-19T07:54:08;98890.00;;;24.69;45.01
19526;BME280;9907;42.676;26.348;2023-05-19T07:56:34;98879.00;;;24.58;45.03
19526;BME280;9907;42.676;26.348;2023-05-19T07:59:00;98888.44;;;24.92;46.64
19526;BME280;9907;42.676;26.348;2023-05-19T08:01:25;98888.69;;;24.90;44.92
19526;BME280;9907;42.676;26.348;2023-05-19T08:03:51;98912.66;;;24.40;45.31
19526;BME280;9907;42.676;26.348;2023-05-19T08:06:16;98904.59;;;24.09;45.86
19526;BME280;9907;42.676;26.348;2023-05-19T08:08:42;98894.00;;;24.37;45.38
19526;BME280;9907;42.676;26.348;2023-05-19T08:11:07;98907.09;;;24.47;45.14
19526;BME280;9907;42.676;26.348;2023-05-19T08:13:33;98898.56;;;24.73;44.83
19526;BME280;9907;42.676;26.348;2023-05-19T08:15:59;98890.97;;;24.75;46.12
19526;BME280;9907;42.676;26.348;2023-05-19T08:18:25;98890.81;;;24.88;45.76
19526;BME280;9907;42.676;26.348;2023-05-19T08:20:50;98906.13;;;24.89;44.67
19526;BME280;9907;42.676;26.348;2023-05-19T08:23:16;98904.94;;;24.85;45.09
19526;BME280;9907;42.676;26.348;2023-05-19T08:25:42;98903.25;;;24.36;44.88
19526;BME280;9907;42.676;26.348;2023-05-19T08:28:08;98906.88;;;24.12;46.08
19526;BME280;9907;42.676;26.348;2023-05-19T08:30:33;98915.81;;;24.01;45.86
19526;BME280;9907;42.676;26.348;2023-05-19T08:32:59;98909.13;;;23.97;45.64
19526;BME280;9907;42.676;26.348;2023-05-19T08:35:25;98908.28;;;23.78;46.15
19526;BME280;9907;42.676;26.348;2023-05-19T08:37:54;98912.78;;;24.09;45.60
19526;BME280;9907;42.676;26.348;2023-05-19T08:40:19;98918.38;;;23.53;47.07
19526;BME280;9907;42.676;26.348;2023-05-19T08:42:45;98908.59;;;23.45;47.12
19526;BME280;9907;42.676;26.348;2023-05-19T08:45:11;98918.25;;;23.66;46.61
19526;BME280;9907;42.676;26.348;2023-05-19T08:47:37;98898.31;;;23.41;47.24
19526;BME280;9907;42.676;26.348;2023-05-19T08:50:04;98913.38;;;23.18;47.63
19526;BME280;9907;42.676;26.348;2023-05-19T08:53:00;98908.19;;;23.10;48.07
19526;BME280;9907;42.676;26.348;2023-05-19T08:55:34;98912.84;;;23.35;47.39
19526;BME280;9907;42.676;26.348;2023-05-19T08:58:02;98913.13;;;23.26;47.92
19526;BME280;9907;42.676;26.348;2023-05-19T09:00:28;98920.84;;;23.29;47.59
19526;BME280;9907;42.676;26.348;2023-05-19T09:03:14;98928.25;;;23.22;48.19
19526;BME280;9907;42.676;26.348;2023-05-19T09:05:43;98924.44;;;23.55;46.26
19526;BME280;9907;42.676;26.348;2023-05-19T09:08:10;98907.25;;;23.54;45.74
19526;BME280;9907;42.676;26.348;2023-05-19T09:10:35;98909.97;;;23.54;47.15
19526;BME280;9907;42.676;26.348;2023-05-19T09:13:04;98923.34;;;23.81;44.51
19526;BME280;9907;42.676;26.348;2023-05-19T09:15:33;98920.66;;;23.99;44.85
19526;BME280;9907;42.676;26.348;2023-05-19T09:18:10;98911.50;;;23.93;45.73
19526;BME280;9907;42.676;26.348;2023-05-19T09:20:39;98923.31;;;24.05;44.50
19526;BME280;9907;42.676;26.348;2023-05-19T09:23:05;98940.56;;;23.99;44.30
19526;BME280;9907;42.676;26.348;2023-05-19T09:25:32;98916.63;;;23.83;44.30
19526;BME280;9907;42.676;26.348;2023-05-19T09:27:57;98919.81;;;23.98;45.60
19526;BME280;9907;42.676;26.348;2023-05-19T09:30:23;98926.66;;;24.07;45.61
19526;BME280;9907;42.676;26.348;2023-05-19T09:32:50;98924.34;;;23.86;45.71
19526;BME280;9907;42.676;26.348;2023-05-19T09:35:16;98932.66;;;23.73;46.53
19526;BME280;9907;42.676;26.348;2023-05-19T09:37:45;98933.38;;;23.37;46.80
19526;BME280;9907;42.676;26.348;2023-05-19T09:40:14;98942.47;;;23.56;46.67
19526;BME280;9907;42.676;26.348;2023-05-19T09:42:43;98958.59;;;23.26;46.95
19526;BME280;9907;42.676;26.348;2023-05-19T09:45:09;98926.34;;;23.23;47.25
19526;BME280;9907;42.676;26.348;2023-05-19T09:47:39;98942.47;;;23.24;48.17
19526;BME280;9907;42.676;26.348;2023-05-19T09:50:10;98925.53;;;23.47;47.67
19526;BME280;9907;42.676;26.348;2023-05-19T09:52:37;98938.19;;;23.42;47.81
19526;BME280;9907;42.676;26.348;2023-05-19T09:55:03;98936.59;;;22.96;47.78
19526;BME280;9907;42.676;26.348;2023-05-19T09:57:34;98925.63;;;23.09;48.06
19526;BME280;9907;42.676;26.348;2023-05-19T10:00:09;98922.44;;;23.44;47.95
19526;BME280;9907;42.676;26.348;2023-05-19T10:02:45;98929.06;;;23.23;48.86
19526;BME280;9907;42.676;26.348;2023-05-19T10:05:16;98924.06;;;22.89;49.47
19526;BME280;9907;42.676;26.348;2023-05-19T10:07:46;98922.81;;;22.85;49.63
19526;BME280;9907;42.676;26.348;2023-05-19T10:10:14;98933.88;;;22.96;48.80
19526;BME280;9907;42.676;26.348;2023-05-19T10:12:41;98921.47;;;23.00;49.54
19526;BME280;9907;42.676;26.348;2023-05-19T10:15:08;98913.84;;;23.15;49.76
19526;BME280;9907;42.676;26.348;2023-05-19T10:17:37;98909.03;;;23.11;49.01
19526;BME280;9907;42.676;26.348;2023-05-19T10:20:05;98898.25;;;22.98;49.65
19526;BME280;9907;42.676;26.348;2023-05-19T10:22:32;98904.69;;;23.03;50.15
19526;BME280;9907;42.676;26.348;2023-05-19T10:24:57;98895.06;;;23.01;49.39
19526;BME280;9907;42.676;26.348;2023-05-19T10:27:23;98905.41;;;22.92;50.08
19526;BME280;9907;42.676;26.348;2023-05-19T10:29:53;98896.00;;;22.88;49.57
19526;BME280;9907;42.676;26.348;2023-05-19T10:32:27;98905.31;;;22.74;50.56
19526;BME280;9907;42.676;26.348;2023-05-19T10:37:45;98871.75;;;22.80;50.84
19526;BME280;9907;42.676;26.348;2023-05-19T10:40:56;98878.13;;;22.61;50.90
19526;BME280;9907;42.676;26.348;2023-05-19T10:43:53;98867.66;;;22.64;51.42
19526;BME280;9907;42.676;26.348;2023-05-19T10:46:25;98864.09;;;22.64;50.76
19526;BME280;9907;42.676;26.348;2023-05-19T10:48:51;98858.38;;;22.78;51.08
19526;BME280;9907;42.676;26.348;2023-05-19T10:51:17;98872.31;;;22.51;51.63
19526;BME280;9907;42.676;26.348;2023-05-19T10:53:42;98865.56;;;22.60;52.00
19526;BME280;9907;42.676;26.348;2023-05-19T10:56:26;98861.16;;;22.59;51.37
19526;BME280;9907;42.676;26.348;2023-05-19T10:58:53;98876.84;;;22.70;52.37
19526;BME280;9907;42.676;26.348;2023-05-19T11:01:19;98869.16;;;22.92;51.32
19526;BME280;9907;42.676;26.348;2023-05-19T11:03:52;98860.31;;;22.96;51.36
19526;BME280;9907;42.676;26.348;2023-05-19T11:09:00;98888.34;;;22.65;50.57
19526;BME280;9907;42.676;26.348;2023-05-19T11:11:45;98876.66;;;22.65;50.51
19526;BME280;9907;42.676;26.348;2023-05-19T11:14:11;98864.69;;;22.66;50.75
19526;BME280;9907;42.676;26.348;2023-05-19T11:16:41;98889.88;;;22.61;50.52
19526;BME280;9907;42.676;26.348;2023-05-19T11:19:07;98901.59;;;22.55;50.43
19526;BME280;9907;42.676;26.348;2023-05-19T11:21:52;98946.47;;;22.46;50.53
19526;BME280;9907;42.676;26.348;2023-05-19T11:24:44;98946.94;;;20.85;54.76
19526;BME280;9907;42.676;26.348;2023-05-19T11:27:29;98960.00;;;20.21;57.75
19526;BME280;9907;42.676;26.348;2023-05-19T11:29:59;98995.06;;;20.23;58.82
19526;BME280;9907;42.676;26.348;2023-05-19T11:32:28;99000.03;;;19.36;79.98
19526;BME280;9907;42.676;26.348;2023-05-19T11:34:54;98986.09;;;18.61;82.62
19526;BME280;9907;42.676;26.348;2023-05-19T11:37:20;98988.94;;;18.74;82.56
19526;BME280;9907;42.676;26.348;2023-05-19T11:39:46;98991.41;;;18.90;79.03
19526;BME280;9907;42.676;26.348;2023-05-19T11:42:12;99046.41;;;18.46;78.03
19526;BME280;9907;42.676;26.348;2023-05-19T11:44:38;99047.78;;;17.38;98.42
19526;BME280;9907;42.676;26.348;2023-05-19T11:47:06;99044.19;;;16.53;100.00
19526;BME280;9907;42.676;26.348;2023-05-19T11:49:32;98996.81;;;16.20;100.00
19526;BME280;9907;42.676;26.348;2023-05-19T11:51:59;99009.53;;;16.03;100.00
19526;BME280;9907;42.676;26.348;2023-05-19T11:54:30;98997.78;;;15.80;100.00
19526;BME280;9907;42.676;26.348;2023-05-19T11:56:57;98995.25;;;15.87;100.00
19526;BME280;9907;42.676;26.348;2023-05-19T11:59:35;98976.75;;;15.68;100.00
19526;BME280;9907;42.676;26.348;2023-05-19T12:04:43;98970.72;;;15.66;100.00
19526;BME280;9907;42.676;26.348;2023-05-19T12:07:12;98961.94;;;15.64;100.00
19526;BME280;9907;42.676;26.348;2023-05-19T12:09:42;98954.38;;;15.67;100.00
19526;BME280;9907;42.676;26.348;2023-05-19T12:12:07;98947.47;;;15.81;100.00
19526;BME280;9907;42.676;26.348;2023-05-19T12:14:33;98934.56;;;16.07;100.00
19526;BME280;9907;42.676;26.348;2023-05-19T12:17:09;98937.88;;;16.17;100.00
19526;BME280;9907;42.676;26.348;2023-05-19T12:19:35;98934.97;;;16.27;100.00
19526;BME280;9907;42.676;26.348;2023-05-19T12:22:01;98943.53;;;16.30;100.00
19526;BME280;9907;42.676;26.348;2023-05-19T12:24:27;98939.78;;;16.47;100.00
19526;BME280;9907;42.676;26.348;2023-05-19T12:27:04;98937.72;;;16.49;100.00
19526;BME280;9907;42.676;26.348;2023-05-19T12:29:30;98944.44;;;16.53;100.00
19526;BME280;9907;42.676;26.348;2023-05-19T12:31:56;98950.34;;;16.57;100.00
19526;BME280;9907;42.676;26.348;2023-05-19T12:34:21;98952.16;;;16.65;100.00
19526;BME280;9907;42.676;26.348;2023-05-19T12:36:47;98937.53;;;16.59;100.00
19526;BME280;9907;42.676;26.348;2023-05-19T12:39:13;98944.09;;;16.57;100.00
19526;BME280;9907;42.676;26.348;2023-05-19T12:41:39;98931.59;;;16.64;100.00
19526;BME280;9907;42.676;26.348;2023-05-19T12:44:14;98930.09;;;16.61;100.00
19526;BME280;9907;42.676;26.348;2023-05-19T12:46:40;98944.72;;;16.67;100.00
19526;BME280;9907;42.676;26.348;2023-05-19T12:49:06;98944.22;;;16.63;100.00
19526;BME280;9907;42.676;26.348;2023-05-19T12:51:50;98945.34;;;16.77;100.00
19526;BME280;9907;42.676;26.348;2023-05-19T12:54:19;98947.78;;;16.86;100.00
19526;BME280;9907;42.676;26.348;2023-05-19T12:56:51;98934.09;;;16.96;100.00
19526;BME280;9907;42.676;26.348;2023-05-19T12:59:23;98939.75;;;17.01;100.00
19526;BME280;9907;42.676;26.348;2023-05-19T13:01:58;98933.28;;;17.10;100.00
19526;BME280;9907;42.676;26.348;2023-05-19T13:04:24;98939.88;;;17.08;100.00
19526;BME280;9907;42.676;26.348;2023-05-19T13:06:51;98937.41;;;17.21;100.00
19526;BME280;9907;42.676;26.348;2023-05-19T13:09:16;98944.59;;;17.28;100.00
19526;BME280;9907;42.676;26.348;2023-05-19T13:11:42;98935.53;;;17.44;100.00
19526;BME280;9907;42.676;26.348;2023-05-19T13:14:08;98933.91;;;17.58;100.00
19526;BME280;9907;42.676;26.348;2023-05-19T13:16:34;98941.16;;;17.72;98.20
19526;BME280;9907;42.676;26.348;2023-05-19T13:19:00;98936.53;;;17.80;100.00
19526;BME280;9907;42.676;26.348;2023-05-19T13:21:26;98934.84;;;17.94;98.07
19526;BME280;9907;42.676;26.348;2023-05-19T13:23:51;98935.38;;;18.04;100.00